sensor_id;sensor_type;location;lat;lon;timestamp;P1;durP1;ratioP1;P2;durP2;ratioP2
40993;SDS011;26722;43.212;27.932;2022-12-22T00:02:29;12.57;;;5.63;;
40993;SDS011;26722;43.212;27.932;2022-12-22T00:05:17;10.38;;;4.75;;
40993;SDS011;26722;43.212;27.932;2022-12-22T00:08:03;12.35;;;5.30;;
40993;SDS011;26722;43.212;27.932;2022-12-22T00:10:47;10.80;;;5.73;;
40993;SDS011;26722;43.212;27.932;2022-12-22T00:13:31;13.57;;;5.30;;
40993;SDS011;26722;43.212;27.932;2022-12-22T00:16:16;14.98;;;6.50;;
40993;SDS011;26722;43.212;27.932;2022-12-22T00:19:00;17.48;;;7.38;;
40993;SDS011;26722;43.212;27.932;2022-12-22T00:21:44;15.57;;;5.50;;
40993;SDS011;26722;43.212;27.932;2022-12-22T00:24:28;14.13;;;6.85;;
40993;SDS011;26722;43.212;27.932;2022-12-22T00:27:18;15.57;;;6.18;;
40993;SDS011;26722;43.212;27.932;2022-12-22T00:30:12;12.20;;;5.15;;
40993;SDS011;26722;43.212;27.932;2022-12-22T00:32:57;13.25;;;6.32;;
40993;SDS011;26722;43.212;27.932;2022-12-22T00:35:42;12.82;;;5.28;;
40993;SDS011;26722;43.212;27.932;2022-12-22T00:38:27;12.40;;;5.20;;
40993;SDS011;26722;43.212;27.932;2022-12-22T00:41:11;13.88;;;5.50;;
40993;SDS011;26722;43.212;27.932;2022-12-22T00:43:55;15.63;;;5.70;;
40993;SDS011;26722;43.212;27.932;2022-12-22T00:46:39;11.73;;;4.82;;
40993;SDS011;26722;43.212;27.932;2022-12-22T00:49:25;11.20;;;5.75;;
40993;SDS011;26722;43.212;27.932;2022-12-22T00:52:11;12.02;;;5.50;;
40993;SDS011;26722;43.212;27.932;2022-12-22T00:54:55;11.10;;;4.75;;
40993;SDS011;26722;43.212;27.932;2022-12-22T00:57:38;12.27;;;4.85;;
40993;SDS011;26722;43.212;27.932;2022-12-22T01:00:25;13.82;;;5.10;;
40993;SDS011;26722;43.212;27.932;2022-12-22T01:03:09;8.93;;;5.30;;
40993;SDS011;26722;43.212;27.932;2022-12-22T01:05:54;12.88;;;5.38;;
40993;SDS011;26722;43.212;27.932;2022-12-22T01:08:38;10.65;;;5.35;;
40993;SDS011;26722;43.212;27.932;2022-12-22T01:11:23;16.05;;;6.43;;
40993;SDS011;26722;43.212;27.932;2022-12-22T01:14:09;17.58;;;6.20;;
40993;SDS011;26722;43.212;27.932;2022-12-22T01:16:57;19.80;;;7.47;;
40993;SDS011;26722;43.212;27.932;2022-12-22T01:19:42;11.90;;;6.32;;
40993;SDS011;26722;43.212;27.932;2022-12-22T01:22:26;16.38;;;7.07;;
40993;SDS011;26722;43.212;27.932;2022-12-22T01:25:12;12.60;;;5.40;;
40993;SDS011;26722;43.212;27.932;2022-12-22T01:27:58;21.88;;;8.45;;
40993;SDS011;26722;43.212;27.932;2022-12-22T01:30:42;23.58;;;9.57;;
40993;SDS011;26722;43.212;27.932;2022-12-22T01:33:26;17.38;;;8.30;;
40993;SDS011;26722;43.212;27.932;2022-12-22T01:36:10;16.15;;;7.55;;
40993;SDS011;26722;43.212;27.932;2022-12-22T01:38:54;16.65;;;8.20;;
40993;SDS011;26722;43.212;27.932;2022-12-22T01:41:38;17.90;;;8.10;;
40993;SDS011;26722;43.212;27.932;2022-12-22T01:44:22;17.48;;;8.18;;
40993;SDS011;26722;43.212;27.932;2022-12-22T01:50:12;18.83;;;9.80;;
40993;SDS011;26722;43.212;27.932;2022-12-22T01:52:57;19.80;;;8.80;;
40993;SDS011;26722;43.212;27.932;2022-12-22T01:55:41;18.00;;;8.65;;
40993;SDS011;26722;43.212;27.932;2022-12-22T01:58:26;19.73;;;7.78;;
40993;SDS011;26722;43.212;27.932;2022-12-22T02:01:14;14.77;;;7.80;;
40993;SDS011;26722;43.212;27.932;2022-12-22T02:03:58;12.60;;;6.45;;
40993;SDS011;26722;43.212;27.932;2022-12-22T02:06:43;12.27;;;6.72;;
40993;SDS011;26722;43.212;27.932;2022-12-22T02:15:14;14.20;;;7.32;;
40993;SDS011;26722;43.212;27.932;2022-12-22T02:18:14;17.75;;;7.78;;
40993;SDS011;26722;43.212;27.932;2022-12-22T02:21:04;21.63;;;8.60;;
40993;SDS011;26722;43.212;27.932;2022-12-22T02:24:09;18.35;;;8.18;;
40993;SDS011;26722;43.212;27.932;2022-12-22T02:27:06;26.08;;;8.38;;
40993;SDS011;26722;43.212;27.932;2022-12-22T02:29:54;20.58;;;8.23;;
40993;SDS011;26722;43.212;27.932;2022-12-22T02:32:42;18.90;;;7.57;;
40993;SDS011;26722;43.212;27.932;2022-12-22T02:35:27;15.70;;;7.20;;
40993;SDS011;26722;43.212;27.932;2022-12-22T02:41:37;16.63;;;7.43;;
40993;SDS011;26722;43.212;27.932;2022-12-22T02:44:36;21.42;;;8.05;;
40993;SDS011;26722;43.212;27.932;2022-12-22T02:50:17;15.80;;;6.28;;
40993;SDS011;26722;43.212;27.932;2022-12-22T02:53:07;11.55;;;5.75;;
40993;SDS011;26722;43.212;27.932;2022-12-22T02:58:44;14.57;;;7.22;;
40993;SDS011;26722;43.212;27.932;2022-12-22T03:01:28;14.05;;;6.68;;
40993;SDS011;26722;43.212;27.932;2022-12-22T03:04:12;15.68;;;6.72;;
40993;SDS011;26722;43.212;27.932;2022-12-22T03:06:56;12.98;;;5.75;;
40993;SDS011;26722;43.212;27.932;2022-12-22T03:09:40;13.32;;;5.38;;
40993;SDS011;26722;43.212;27.932;2022-12-22T03:12:24;16.27;;;5.65;;
40993;SDS011;26722;43.212;27.932;2022-12-22T03:15:08;12.15;;;6.15;;
40993;SDS011;26722;43.212;27.932;2022-12-22T03:17:51;11.05;;;5.85;;
40993;SDS011;26722;43.212;27.932;2022-12-22T03:20:35;11.13;;;5.63;;
40993;SDS011;26722;43.212;27.932;2022-12-22T03:23:19;18.23;;;5.65;;
40993;SDS011;26722;43.212;27.932;2022-12-22T03:26:03;14.07;;;5.60;;
40993;SDS011;26722;43.212;27.932;2022-12-22T03:28:29;11.25;;;5.07;;
40993;SDS011;26722;43.212;27.932;2022-12-22T03:30:58;13.52;;;4.93;;
40993;SDS011;26722;43.212;27.932;2022-12-22T03:33:26;11.65;;;5.15;;
40993;SDS011;26722;43.212;27.932;2022-12-22T03:35:52;13.13;;;5.22;;
40993;SDS011;26722;43.212;27.932;2022-12-22T03:38:18;10.52;;;5.07;;
40993;SDS011;26722;43.212;27.932;2022-12-22T03:40:43;13.38;;;4.60;;
40993;SDS011;26722;43.212;27.932;2022-12-22T03:43:10;13.13;;;4.93;;
40993;SDS011;26722;43.212;27.932;2022-12-22T03:45:55;10.98;;;5.63;;
40993;SDS011;26722;43.212;27.932;2022-12-22T03:48:39;14.33;;;4.80;;
40993;SDS011;26722;43.212;27.932;2022-12-22T03:51:05;12.25;;;5.65;;
40993;SDS011;26722;43.212;27.932;2022-12-22T03:53:30;14.10;;;4.75;;
40993;SDS011;26722;43.212;27.932;2022-12-22T03:55:56;12.75;;;5.20;;
40993;SDS011;26722;43.212;27.932;2022-12-22T03:58:21;10.35;;;4.55;;
40993;SDS011;26722;43.212;27.932;2022-12-22T04:00:47;10.65;;;4.97;;
40993;SDS011;26722;43.212;27.932;2022-12-22T04:03:12;13.23;;;5.25;;
40993;SDS011;26722;43.212;27.932;2022-12-22T04:05:38;12.65;;;4.63;;
40993;SDS011;26722;43.212;27.932;2022-12-22T04:08:04;11.55;;;6.15;;
40993;SDS011;26722;43.212;27.932;2022-12-22T04:10:30;11.63;;;4.78;;
40993;SDS011;26722;43.212;27.932;2022-12-22T04:13:14;12.48;;;5.07;;
40993;SDS011;26722;43.212;27.932;2022-12-22T04:15:39;11.05;;;5.10;;
40993;SDS011;26722;43.212;27.932;2022-12-22T04:18:05;12.95;;;5.88;;
40993;SDS011;26722;43.212;27.932;2022-12-22T04:20:30;13.77;;;5.32;;
40993;SDS011;26722;43.212;27.932;2022-12-22T04:22:56;12.52;;;5.75;;
40993;SDS011;26722;43.212;27.932;2022-12-22T04:25:22;14.35;;;6.22;;
40993;SDS011;26722;43.212;27.932;2022-12-22T04:27:49;10.75;;;5.72;;
40993;SDS011;26722;43.212;27.932;2022-12-22T04:30:15;11.60;;;6.40;;
40993;SDS011;26722;43.212;27.932;2022-12-22T04:32:41;16.55;;;6.43;;
40993;SDS011;26722;43.212;27.932;2022-12-22T04:35:06;17.85;;;7.38;;
40993;SDS011;26722;43.212;27.932;2022-12-22T04:37:33;19.13;;;7.38;;
40993;SDS011;26722;43.212;27.932;2022-12-22T04:39:58;17.60;;;7.25;;
40993;SDS011;26722;43.212;27.932;2022-12-22T04:42:24;19.77;;;7.47;;
40993;SDS011;26722;43.212;27.932;2022-12-22T04:44:49;18.70;;;7.65;;
40993;SDS011;26722;43.212;27.932;2022-12-22T04:47:15;19.35;;;8.57;;
40993;SDS011;26722;43.212;27.932;2022-12-22T04:49:40;25.33;;;8.93;;
40993;SDS011;26722;43.212;27.932;2022-12-22T04:52:06;22.80;;;9.70;;
40993;SDS011;26722;43.212;27.932;2022-12-22T04:54:31;21.63;;;9.55;;
40993;SDS011;26722;43.212;27.932;2022-12-22T04:56:57;26.90;;;10.23;;
40993;SDS011;26722;43.212;27.932;2022-12-22T04:59:22;25.08;;;9.75;;
40993;SDS011;26722;43.212;27.932;2022-12-22T05:01:48;17.77;;;7.93;;
40993;SDS011;26722;43.212;27.932;2022-12-22T05:04:13;18.48;;;8.75;;
40993;SDS011;26722;43.212;27.932;2022-12-22T05:06:38;25.58;;;9.32;;
40993;SDS011;26722;43.212;27.932;2022-12-22T05:09:04;15.13;;;7.95;;
40993;SDS011;26722;43.212;27.932;2022-12-22T05:11:29;28.58;;;8.95;;
40993;SDS011;26722;43.212;27.932;2022-12-22T05:13:55;18.65;;;9.45;;
40993;SDS011;26722;43.212;27.932;2022-12-22T05:16:20;19.08;;;9.60;;
40993;SDS011;26722;43.212;27.932;2022-12-22T05:18:46;22.40;;;8.60;;
40993;SDS011;26722;43.212;27.932;2022-12-22T05:21:12;22.45;;;9.73;;
40993;SDS011;26722;43.212;27.932;2022-12-22T05:23:39;20.45;;;9.70;;
40993;SDS011;26722;43.212;27.932;2022-12-22T05:26:06;19.70;;;8.50;;
40993;SDS011;26722;43.212;27.932;2022-12-22T05:28:32;16.50;;;7.95;;
40993;SDS011;26722;43.212;27.932;2022-12-22T05:31:02;24.38;;;9.90;;
40993;SDS011;26722;43.212;27.932;2022-12-22T05:33:32;22.60;;;9.52;;
40993;SDS011;26722;43.212;27.932;2022-12-22T05:35:58;23.20;;;9.45;;
40993;SDS011;26722;43.212;27.932;2022-12-22T05:38:23;16.17;;;8.65;;
40993;SDS011;26722;43.212;27.932;2022-12-22T05:40:49;19.50;;;9.20;;
40993;SDS011;26722;43.212;27.932;2022-12-22T05:43:14;18.90;;;8.82;;
40993;SDS011;26722;43.212;27.932;2022-12-22T05:45:41;23.08;;;8.75;;
40993;SDS011;26722;43.212;27.932;2022-12-22T05:48:08;20.67;;;8.73;;
40993;SDS011;26722;43.212;27.932;2022-12-22T05:50:33;27.80;;;9.90;;
40993;SDS011;26722;43.212;27.932;2022-12-22T05:52:59;22.92;;;9.65;;
40993;SDS011;26722;43.212;27.932;2022-12-22T05:55:25;24.10;;;9.48;;
40993;SDS011;26722;43.212;27.932;2022-12-22T05:57:50;17.98;;;9.23;;
40993;SDS011;26722;43.212;27.932;2022-12-22T06:00:16;21.27;;;9.45;;
40993;SDS011;26722;43.212;27.932;2022-12-22T06:02:42;19.77;;;9.82;;
40993;SDS011;26722;43.212;27.932;2022-12-22T06:05:08;20.40;;;9.40;;
40993;SDS011;26722;43.212;27.932;2022-12-22T06:07:36;22.77;;;10.68;;
40993;SDS011;26722;43.212;27.932;2022-12-22T06:10:02;22.10;;;10.27;;
40993;SDS011;26722;43.212;27.932;2022-12-22T06:12:29;31.63;;;10.27;;
40993;SDS011;26722;43.212;27.932;2022-12-22T06:14:54;18.70;;;9.55;;
40993;SDS011;26722;43.212;27.932;2022-12-22T06:17:20;18.20;;;9.77;;
40993;SDS011;26722;43.212;27.932;2022-12-22T06:19:45;22.42;;;10.45;;
40993;SDS011;26722;43.212;27.932;2022-12-22T06:22:11;23.80;;;10.77;;
40993;SDS011;26722;43.212;27.932;2022-12-22T06:24:36;20.38;;;9.27;;
40993;SDS011;26722;43.212;27.932;2022-12-22T06:27:01;33.45;;;9.68;;
40993;SDS011;26722;43.212;27.932;2022-12-22T06:29:27;20.98;;;10.35;;
40993;SDS011;26722;43.212;27.932;2022-12-22T06:31:52;17.88;;;8.48;;
40993;SDS011;26722;43.212;27.932;2022-12-22T06:34:18;18.85;;;8.52;;
40993;SDS011;26722;43.212;27.932;2022-12-22T06:36:44;23.23;;;10.07;;
40993;SDS011;26722;43.212;27.932;2022-12-22T06:39:10;25.00;;;9.93;;
40993;SDS011;26722;43.212;27.932;2022-12-22T06:41:36;17.63;;;8.63;;
40993;SDS011;26722;43.212;27.932;2022-12-22T06:44:20;19.90;;;10.05;;
40993;SDS011;26722;43.212;27.932;2022-12-22T06:46:45;20.98;;;9.13;;
40993;SDS011;26722;43.212;27.932;2022-12-22T06:49:11;22.38;;;9.18;;
40993;SDS011;26722;43.212;27.932;2022-12-22T06:51:36;22.05;;;9.48;;
40993;SDS011;26722;43.212;27.932;2022-12-22T06:54:02;18.08;;;8.07;;
40993;SDS011;26722;43.212;27.932;2022-12-22T06:56:27;21.50;;;8.70;;
40993;SDS011;26722;43.212;27.932;2022-12-22T06:58:53;17.98;;;8.55;;
40993;SDS011;26722;43.212;27.932;2022-12-22T07:01:18;19.23;;;8.18;;
40993;SDS011;26722;43.212;27.932;2022-12-22T07:03:44;16.83;;;7.30;;
40993;SDS011;26722;43.212;27.932;2022-12-22T07:06:09;15.57;;;7.28;;
40993;SDS011;26722;43.212;27.932;2022-12-22T07:08:35;14.90;;;7.45;;
40993;SDS011;26722;43.212;27.932;2022-12-22T07:11:01;13.73;;;6.88;;
40993;SDS011;26722;43.212;27.932;2022-12-22T07:13:31;16.77;;;6.53;;
40993;SDS011;26722;43.212;27.932;2022-12-22T07:15:58;16.17;;;7.63;;
40993;SDS011;26722;43.212;27.932;2022-12-22T07:18:25;12.95;;;7.20;;
40993;SDS011;26722;43.212;27.932;2022-12-22T07:20:51;14.38;;;6.90;;
40993;SDS011;26722;43.212;27.932;2022-12-22T07:23:17;18.73;;;6.53;;
40993;SDS011;26722;43.212;27.932;2022-12-22T07:25:42;13.65;;;6.43;;
40993;SDS011;26722;43.212;27.932;2022-12-22T07:28:08;15.32;;;6.90;;
40993;SDS011;26722;43.212;27.932;2022-12-22T07:30:33;14.30;;;6.18;;
40993;SDS011;26722;43.212;27.932;2022-12-22T07:33:01;11.27;;;5.93;;
40993;SDS011;26722;43.212;27.932;2022-12-22T07:35:27;12.60;;;6.32;;
40993;SDS011;26722;43.212;27.932;2022-12-22T07:37:53;13.10;;;6.20;;
40993;SDS011;26722;43.212;27.932;2022-12-22T07:40:18;18.08;;;5.85;;
40993;SDS011;26722;43.212;27.932;2022-12-22T07:42:44;15.57;;;6.70;;
40993;SDS011;26722;43.212;27.932;2022-12-22T07:45:12;14.32;;;6.07;;
40993;SDS011;26722;43.212;27.932;2022-12-22T07:47:42;13.55;;;6.05;;
40993;SDS011;26722;43.212;27.932;2022-12-22T07:50:10;18.38;;;6.53;;
40993;SDS011;26722;43.212;27.932;2022-12-22T07:52:59;13.75;;;6.00;;
40993;SDS011;26722;43.212;27.932;2022-12-22T07:55:30;12.18;;;5.95;;
40993;SDS011;26722;43.212;27.932;2022-12-22T07:57:59;12.45;;;6.15;;
40993;SDS011;26722;43.212;27.932;2022-12-22T08:00:24;12.27;;;5.97;;
40993;SDS011;26722;43.212;27.932;2022-12-22T08:02:54;13.80;;;6.30;;
40993;SDS011;26722;43.212;27.932;2022-12-22T08:05:21;20.35;;;5.65;;
40993;SDS011;26722;43.212;27.932;2022-12-22T08:07:49;14.25;;;6.50;;
40993;SDS011;26722;43.212;27.932;2022-12-22T08:10:15;13.55;;;6.43;;
40993;SDS011;26722;43.212;27.932;2022-12-22T08:12:42;13.70;;;5.72;;
40993;SDS011;26722;43.212;27.932;2022-12-22T08:15:07;15.00;;;6.05;;
40993;SDS011;26722;43.212;27.932;2022-12-22T08:17:33;14.98;;;5.97;;
40993;SDS011;26722;43.212;27.932;2022-12-22T08:19:59;14.35;;;6.13;;
40993;SDS011;26722;43.212;27.932;2022-12-22T08:22:25;12.10;;;5.60;;
40993;SDS011;26722;43.212;27.932;2022-12-22T08:24:51;10.88;;;5.07;;
40993;SDS011;26722;43.212;27.932;2022-12-22T08:27:21;13.23;;;5.30;;
40993;SDS011;26722;43.212;27.932;2022-12-22T08:30:06;11.77;;;5.22;;
40993;SDS011;26722;43.212;27.932;2022-12-22T08:32:34;11.27;;;5.78;;
40993;SDS011;26722;43.212;27.932;2022-12-22T08:35:02;15.45;;;5.72;;
40993;SDS011;26722;43.212;27.932;2022-12-22T08:37:28;12.45;;;5.45;;
40993;SDS011;26722;43.212;27.932;2022-12-22T08:39:57;17.58;;;5.75;;
40993;SDS011;26722;43.212;27.932;2022-12-22T08:42:26;10.95;;;5.50;;
40993;SDS011;26722;43.212;27.932;2022-12-22T08:44:52;9.45;;;5.75;;
40993;SDS011;26722;43.212;27.932;2022-12-22T08:47:18;11.63;;;6.00;;
40993;SDS011;26722;43.212;27.932;2022-12-22T08:49:44;14.77;;;5.88;;
40993;SDS011;26722;43.212;27.932;2022-12-22T08:52:10;14.13;;;5.97;;
40993;SDS011;26722;43.212;27.932;2022-12-22T08:54:36;13.15;;;5.32;;
40993;SDS011;26722;43.212;27.932;2022-12-22T08:57:01;12.85;;;6.18;;
40993;SDS011;26722;43.212;27.932;2022-12-22T08:59:27;11.65;;;6.30;;
40993;SDS011;26722;43.212;27.932;2022-12-22T09:01:52;16.20;;;7.28;;
40993;SDS011;26722;43.212;27.932;2022-12-22T09:04:18;12.10;;;6.30;;
40993;SDS011;26722;43.212;27.932;2022-12-22T09:06:45;18.10;;;7.65;;
40993;SDS011;26722;43.212;27.932;2022-12-22T09:40:48;20.10;;;9.57;;
40993;SDS011;26722;43.212;27.932;2022-12-22T09:43:16;24.77;;;10.38;;
40993;SDS011;26722;43.212;27.932;2022-12-22T09:45:45;23.17;;;10.57;;
40993;SDS011;26722;43.212;27.932;2022-12-22T09:48:11;20.67;;;9.63;;
40993;SDS011;26722;43.212;27.932;2022-12-22T09:50:39;20.15;;;9.45;;
40993;SDS011;26722;43.212;27.932;2022-12-22T09:53:07;17.90;;;9.40;;
40993;SDS011;26722;43.212;27.932;2022-12-22T09:55:43;25.55;;;9.85;;
40993;SDS011;26722;43.212;27.932;2022-12-22T09:58:18;25.15;;;10.00;;
40993;SDS011;26722;43.212;27.932;2022-12-22T10:00:50;21.02;;;9.75;;
40993;SDS011;26722;43.212;27.932;2022-12-22T10:03:44;14.45;;;8.95;;
40993;SDS011;26722;43.212;27.932;2022-12-22T10:08:39;21.15;;;8.55;;
40993;SDS011;26722;43.212;27.932;2022-12-22T10:11:05;22.58;;;9.20;;
40993;SDS011;26722;43.212;27.932;2022-12-22T10:13:36;19.15;;;9.00;;
40993;SDS011;26722;43.212;27.932;2022-12-22T10:16:14;17.55;;;7.80;;
40993;SDS011;26722;43.212;27.932;2022-12-22T10:18:41;17.50;;;7.90;;
40993;SDS011;26722;43.212;27.932;2022-12-22T10:21:20;18.00;;;8.38;;
40993;SDS011;26722;43.212;27.932;2022-12-22T10:23:47;14.85;;;7.57;;
40993;SDS011;26722;43.212;27.932;2022-12-22T10:26:16;17.30;;;8.50;;
40993;SDS011;26722;43.212;27.932;2022-12-22T10:29:09;19.40;;;8.88;;
40993;SDS011;26722;43.212;27.932;2022-12-22T10:34:23;19.58;;;8.32;;
40993;SDS011;26722;43.212;27.932;2022-12-22T10:36:50;23.05;;;8.70;;
40993;SDS011;26722;43.212;27.932;2022-12-22T10:39:23;15.63;;;8.40;;
40993;SDS011;26722;43.212;27.932;2022-12-22T10:41:51;15.52;;;8.52;;
40993;SDS011;26722;43.212;27.932;2022-12-22T10:44:31;17.27;;;8.32;;
40993;SDS011;26722;43.212;27.932;2022-12-22T10:47:00;17.20;;;8.88;;
40993;SDS011;26722;43.212;27.932;2022-12-22T10:49:39;19.08;;;8.40;;
40993;SDS011;26722;43.212;27.932;2022-12-22T10:52:10;12.88;;;7.07;;
40993;SDS011;26722;43.212;27.932;2022-12-22T10:54:39;10.68;;;5.60;;
40993;SDS011;26722;43.212;27.932;2022-12-22T11:02:50;9.07;;;5.00;;
40993;SDS011;26722;43.212;27.932;2022-12-22T11:05:17;9.10;;;5.22;;
40993;SDS011;26722;43.212;27.932;2022-12-22T11:07:44;11.02;;;4.97;;
40993;SDS011;26722;43.212;27.932;2022-12-22T11:15:38;11.30;;;4.80;;
40993;SDS011;26722;43.212;27.932;2022-12-22T11:20:46;10.82;;;4.68;;
40993;SDS011;26722;43.212;27.932;2022-12-22T11:24:17;12.07;;;4.90;;
40993;SDS011;26722;43.212;27.932;2022-12-22T11:37:48;8.35;;;4.28;;
40993;SDS011;26722;43.212;27.932;2022-12-22T11:40:27;12.23;;;4.60;;
40993;SDS011;26722;43.212;27.932;2022-12-22T11:48:53;8.90;;;4.55;;
40993;SDS011;26722;43.212;27.932;2022-12-22T11:56:46;9.30;;;4.30;;
40993;SDS011;26722;43.212;27.932;2022-12-22T11:59:48;12.75;;;4.85;;
40993;SDS011;26722;43.212;27.932;2022-12-22T12:07:42;9.70;;;4.20;;
40993;SDS011;26722;43.212;27.932;2022-12-22T12:10:22;9.30;;;4.35;;
40993;SDS011;26722;43.212;27.932;2022-12-22T12:16:12;11.40;;;4.05;;
40993;SDS011;26722;43.212;27.932;2022-12-22T12:18:38;8.32;;;3.83;;
40993;SDS011;26722;43.212;27.932;2022-12-22T12:21:28;8.70;;;4.20;;
40993;SDS011;26722;43.212;27.932;2022-12-22T12:24:20;9.15;;;4.60;;
40993;SDS011;26722;43.212;27.932;2022-12-22T12:32:30;11.27;;;4.22;;
40993;SDS011;26722;43.212;27.932;2022-12-22T12:35:55;17.02;;;4.72;;
40993;SDS011;26722;43.212;27.932;2022-12-22T12:38:06;8.85;;;4.40;;
40993;SDS011;26722;43.212;27.932;2022-12-22T12:41:02;14.90;;;4.88;;
40993;SDS011;26722;43.212;27.932;2022-12-22T12:43:48;8.93;;;4.53;;
40993;SDS011;26722;43.212;27.932;2022-12-22T12:57:00;12.13;;;5.18;;
40993;SDS011;26722;43.212;27.932;2022-12-22T13:02:54;8.68;;;4.00;;
40993;SDS011;26722;43.212;27.932;2022-12-22T13:05:11;8.82;;;4.32;;
40993;SDS011;26722;43.212;27.932;2022-12-22T13:10:42;9.18;;;4.15;;
40993;SDS011;26722;43.212;27.932;2022-12-22T13:15:48;16.10;;;4.63;;
40993;SDS011;26722;43.212;27.932;2022-12-22T13:23:29;10.15;;;4.20;;
40993;SDS011;26722;43.212;27.932;2022-12-22T13:26:22;9.20;;;5.00;;
40993;SDS011;26722;43.212;27.932;2022-12-22T13:28:49;10.07;;;4.07;;
40993;SDS011;26722;43.212;27.932;2022-12-22T13:31:20;10.90;;;4.22;;
40993;SDS011;26722;43.212;27.932;2022-12-22T13:33:51;12.05;;;4.63;;
40993;SDS011;26722;43.212;27.932;2022-12-22T13:36:29;11.88;;;4.97;;
40993;SDS011;26722;43.212;27.932;2022-12-22T13:39:00;6.80;;;4.22;;
40993;SDS011;26722;43.212;27.932;2022-12-22T13:41:27;13.20;;;5.43;;
40993;SDS011;26722;43.212;27.932;2022-12-22T13:43:55;10.85;;;4.28;;
40993;SDS011;26722;43.212;27.932;2022-12-22T13:46:27;17.42;;;4.60;;
40993;SDS011;26722;43.212;27.932;2022-12-22T13:48:53;10.68;;;4.97;;
40993;SDS011;26722;43.212;27.932;2022-12-22T13:51:24;11.60;;;4.40;;
40993;SDS011;26722;43.212;27.932;2022-12-22T13:53:56;9.52;;;4.65;;
40993;SDS011;26722;43.212;27.932;2022-12-22T13:56:27;7.32;;;4.45;;
40993;SDS011;26722;43.212;27.932;2022-12-22T13:59:01;12.73;;;4.85;;
40993;SDS011;26722;43.212;27.932;2022-12-22T14:01:27;13.80;;;5.20;;
40993;SDS011;26722;43.212;27.932;2022-12-22T14:03:54;9.23;;;4.70;;
40993;SDS011;26722;43.212;27.932;2022-12-22T14:11:39;13.25;;;5.30;;
40993;SDS011;26722;43.212;27.932;2022-12-22T14:14:07;10.90;;;5.35;;
40993;SDS011;26722;43.212;27.932;2022-12-22T14:16:34;12.35;;;5.03;;
40993;SDS011;26722;43.212;27.932;2022-12-22T14:19:09;14.05;;;5.43;;
40993;SDS011;26722;43.212;27.932;2022-12-22T14:21:37;13.95;;;5.68;;
40993;SDS011;26722;43.212;27.932;2022-12-22T14:24:04;17.10;;;5.97;;
40993;SDS011;26722;43.212;27.932;2022-12-22T14:26:34;14.82;;;5.45;;
40993;SDS011;26722;43.212;27.932;2022-12-22T14:28:59;11.30;;;6.35;;
40993;SDS011;26722;43.212;27.932;2022-12-22T14:31:25;10.80;;;6.10;;
40993;SDS011;26722;43.212;27.932;2022-12-22T14:33:55;14.80;;;6.75;;
40993;SDS011;26722;43.212;27.932;2022-12-22T14:38:57;11.68;;;6.38;;
40993;SDS011;26722;43.212;27.932;2022-12-22T14:41:30;11.68;;;6.20;;
40993;SDS011;26722;43.212;27.932;2022-12-22T14:44:12;17.70;;;6.93;;
40993;SDS011;26722;43.212;27.932;2022-12-22T14:47:06;15.32;;;7.25;;
40993;SDS011;26722;43.212;27.932;2022-12-22T14:49:57;16.15;;;6.45;;
40993;SDS011;26722;43.212;27.932;2022-12-22T14:52:43;13.75;;;6.88;;
40993;SDS011;26722;43.212;27.932;2022-12-22T15:00:39;11.25;;;6.25;;
40993;SDS011;26722;43.212;27.932;2022-12-22T15:05:49;13.13;;;6.55;;
40993;SDS011;26722;43.212;27.932;2022-12-22T15:11:33;11.13;;;6.65;;
40993;SDS011;26722;43.212;27.932;2022-12-22T15:14:01;16.88;;;7.90;;
40993;SDS011;26722;43.212;27.932;2022-12-22T15:16:28;15.25;;;6.50;;
40993;SDS011;26722;43.212;27.932;2022-12-22T15:18:55;18.60;;;7.50;;
40993;SDS011;26722;43.212;27.932;2022-12-22T15:21:21;12.60;;;7.22;;
40993;SDS011;26722;43.212;27.932;2022-12-22T15:23:47;15.55;;;8.02;;
40993;SDS011;26722;43.212;27.932;2022-12-22T15:26:12;15.18;;;7.95;;
40993;SDS011;26722;43.212;27.932;2022-12-22T15:28:39;20.75;;;7.90;;
40993;SDS011;26722;43.212;27.932;2022-12-22T15:31:08;15.35;;;8.23;;
40993;SDS011;26722;43.212;27.932;2022-12-22T15:33:39;16.42;;;8.68;;
40993;SDS011;26722;43.212;27.932;2022-12-22T15:36:05;23.42;;;8.32;;
40993;SDS011;26722;43.212;27.932;2022-12-22T15:38:36;28.98;;;10.05;;
40993;SDS011;26722;43.212;27.932;2022-12-22T15:41:02;15.88;;;9.18;;
40993;SDS011;26722;43.212;27.932;2022-12-22T15:43:28;23.40;;;10.40;;
40993;SDS011;26722;43.212;27.932;2022-12-22T15:45:53;17.40;;;10.48;;
40993;SDS011;26722;43.212;27.932;2022-12-22T15:48:24;23.48;;;10.43;;
40993;SDS011;26722;43.212;27.932;2022-12-22T15:50:52;27.25;;;11.15;;
40993;SDS011;26722;43.212;27.932;2022-12-22T15:53:19;35.03;;;11.43;;
40993;SDS011;26722;43.212;27.932;2022-12-22T15:55:46;17.70;;;10.63;;
40993;SDS011;26722;43.212;27.932;2022-12-22T15:58:20;18.73;;;10.25;;
40993;SDS011;26722;43.212;27.932;2022-12-22T16:00:50;20.48;;;10.65;;
40993;SDS011;26722;43.212;27.932;2022-12-22T16:03:15;22.08;;;9.95;;
40993;SDS011;26722;43.212;27.932;2022-12-22T16:05:40;20.35;;;10.73;;
40993;SDS011;26722;43.212;27.932;2022-12-22T16:08:11;21.10;;;10.70;;
40993;SDS011;26722;43.212;27.932;2022-12-22T16:10:40;19.85;;;10.02;;
40993;SDS011;26722;43.212;27.932;2022-12-22T16:13:10;17.77;;;10.40;;
40993;SDS011;26722;43.212;27.932;2022-12-22T16:15:37;21.63;;;10.30;;
40993;SDS011;26722;43.212;27.932;2022-12-22T16:18:03;21.40;;;9.90;;
40993;SDS011;26722;43.212;27.932;2022-12-22T16:20:30;33.95;;;13.55;;
40993;SDS011;26722;43.212;27.932;2022-12-22T16:23:00;29.20;;;12.55;;
40993;SDS011;26722;43.212;27.932;2022-12-22T16:25:30;21.17;;;10.23;;
40993;SDS011;26722;43.212;27.932;2022-12-22T16:28:02;23.05;;;11.25;;
40993;SDS011;26722;43.212;27.932;2022-12-22T16:30:30;24.90;;;11.57;;
40993;SDS011;26722;43.212;27.932;2022-12-22T16:32:57;31.45;;;12.07;;
40993;SDS011;26722;43.212;27.932;2022-12-22T16:35:24;23.02;;;12.52;;
40993;SDS011;26722;43.212;27.932;2022-12-22T16:37:53;23.15;;;10.98;;
40993;SDS011;26722;43.212;27.932;2022-12-22T16:40:20;21.38;;;10.10;;
40993;SDS011;26722;43.212;27.932;2022-12-22T16:42:50;19.85;;;10.35;;
40993;SDS011;26722;43.212;27.932;2022-12-22T16:45:25;21.48;;;11.00;;
40993;SDS011;26722;43.212;27.932;2022-12-22T16:47:53;20.55;;;11.20;;
40993;SDS011;26722;43.212;27.932;2022-12-22T16:50:25;20.02;;;11.07;;
40993;SDS011;26722;43.212;27.932;2022-12-22T16:52:57;31.83;;;12.52;;
40993;SDS011;26722;43.212;27.932;2022-12-22T16:55:24;29.33;;;13.05;;
40993;SDS011;26722;43.212;27.932;2022-12-22T16:57:50;31.02;;;12.55;;
40993;SDS011;26722;43.212;27.932;2022-12-22T17:00:17;21.42;;;10.73;;
40993;SDS011;26722;43.212;27.932;2022-12-22T17:02:46;31.65;;;16.48;;
40993;SDS011;26722;43.212;27.932;2022-12-22T17:05:32;35.38;;;16.95;;
40993;SDS011;26722;43.212;27.932;2022-12-22T17:08:22;39.53;;;21.85;;
40993;SDS011;26722;43.212;27.932;2022-12-22T17:10:54;29.08;;;15.85;;
40993;SDS011;26722;43.212;27.932;2022-12-22T17:13:21;40.88;;;17.98;;
40993;SDS011;26722;43.212;27.932;2022-12-22T17:15:47;74.72;;;23.70;;
40993;SDS011;26722;43.212;27.932;2022-12-22T17:18:16;82.95;;;26.30;;
40993;SDS011;26722;43.212;27.932;2022-12-22T17:20:44;63.42;;;24.52;;
40993;SDS011;26722;43.212;27.932;2022-12-22T17:23:25;62.03;;;24.67;;